createdAt,value
2022-09-09T00:02:14.358Z,61.27
2022-09-09T00:04:43.014Z,61.04
2022-09-09T00:07:55.291Z,62.18
2022-09-09T00:10:40.608Z,62.17
2022-09-09T00:13:41.132Z,62.57
2022-09-09T00:16:29.291Z,62.27
2022-09-09T00:19:34.452Z,62.08
2022-09-09T00:22:33.069Z,62.49
2022-09-09T00:25:29.492Z,62.44
2022-09-09T00:27:57.560Z,62.53
2022-09-09T00:30:35.891Z,62.79
2022-09-09T00:33:16.100Z,62.35
2022-09-09T00:35:53.141Z,63.76
2022-09-09T00:38:39.055Z,62.38
2022-09-09T00:41:36.661Z,63.54
2022-09-09T00:44:37.144Z,63.54
2022-09-09T00:47:40.913Z,63.11
2022-09-09T00:50:45.131Z,64.18
2022-09-09T00:54:06.337Z,62.80
2022-09-09T00:57:42.532Z,64.43
2022-09-09T01:00:41.773Z,68.39
2022-09-09T01:03:39.274Z,69.47
2022-09-09T01:06:39.574Z,69.28
2022-09-09T01:09:50.896Z,68.66
2022-09-09T01:12:44.723Z,72.53
2022-09-09T01:15:29.831Z,71.34
2022-09-09T01:18:11.262Z,71.26
2022-09-09T01:21:15.085Z,70.68
2022-09-09T01:25:06.765Z,70.66
2022-09-09T01:27:36.587Z,70.03
2022-09-09T01:30:13.894Z,71.58
2022-09-09T01:32:55.804Z,71.25
2022-09-09T01:36:08.556Z,70.15
2022-09-09T01:38:37.208Z,70.00
2022-09-09T01:41:05.276Z,69.97
2022-09-09T01:43:32.706Z,69.10
2022-09-09T01:46:03.642Z,69.67
2022-09-09T01:48:32.469Z,68.20
2022-09-09T01:50:59.825Z,69.45
2022-09-09T01:53:27.093Z,70.31
2022-09-09T01:56:53.145Z,70.64
2022-09-09T02:00:06.163Z,69.27
2022-09-09T02:03:33.437Z,70.45
2022-09-09T02:06:36.641Z,71.13
2022-09-09T02:09:11.690Z,71.15
2022-09-09T02:11:39.451Z,71.67
2022-09-09T02:14:30.567Z,71.89
2022-09-09T02:17:12.856Z,71.50
2022-09-09T02:19:53.460Z,70.52
2022-09-09T02:22:25.260Z,70.90
2022-09-09T02:24:56.572Z,70.94
2022-09-09T02:27:24.856Z,70.25
2022-09-09T02:29:54.017Z,70.56
2022-09-09T02:32:25.409Z,70.97
2022-09-09T02:35:08.271Z,71.34
2022-09-09T02:37:40.990Z,71.44
2022-09-09T02:40:14.415Z,71.35
2022-09-09T02:42:49.044Z,71.18
2022-09-09T02:45:26.059Z,71.43
2022-09-09T02:48:56.157Z,70.43
2022-09-09T02:52:07.753Z,71.01
2022-09-09T02:54:41.021Z,71.06
2022-09-09T02:57:22.110Z,70.51
2022-09-09T02:59:50.852Z,71.14
2022-09-09T03:02:19.779Z,71.65
2022-09-09T03:04:51.808Z,70.98
2022-09-09T03:07:21.079Z,71.35
2022-09-09T03:09:49.067Z,72.03
2022-09-09T03:12:17.305Z,71.25
2022-09-09T03:14:46.379Z,72.47
2022-09-09T03:17:14.776Z,72.32
2022-09-09T03:19:42.858Z,71.88
2022-09-09T03:22:12.875Z,71.67
2022-09-09T03:24:40.173Z,71.86
2022-09-09T03:27:08.036Z,72.34
2022-09-09T03:29:35.343Z,71.81
2022-09-09T03:32:03.159Z,71.47
2022-09-09T03:34:30.452Z,71.75
2022-09-09T03:36:57.744Z,71.48
2022-09-09T03:39:25.036Z,71.89
2022-09-09T03:41:52.484Z,71.98
2022-09-09T03:44:19.736Z,71.84
2022-09-09T03:46:47.074Z,71.67
2022-09-09T03:49:14.515Z,72.31
2022-09-09T03:51:42.149Z,71.33
2022-09-09T03:54:11.220Z,71.12
2022-09-09T03:56:38.605Z,72.11
2022-09-09T03:59:05.890Z,71.56
2022-09-09T04:01:33.390Z,71.14
2022-09-09T04:04:01.063Z,71.24
2022-09-09T04:06:28.897Z,71.55
2022-09-09T04:08:56.410Z,72.04
2022-09-09T04:11:24.160Z,72.46
2022-09-09T04:13:51.664Z,72.58
2022-09-09T04:16:18.977Z,72.06
2022-09-09T04:18:47.591Z,71.87
2022-09-09T04:21:15.016Z,71.80
2022-09-09T04:23:42.441Z,72.05
2022-09-09T04:26:10.496Z,71.91
2022-09-09T04:28:38.794Z,72.83
2022-09-09T04:31:23.834Z,72.33
2022-09-09T04:33:52.420Z,71.74
2022-09-09T04:36:20.873Z,72.23
2022-09-09T04:38:49.679Z,71.96
2022-09-09T04:41:17.574Z,72.36
2022-09-09T04:43:44.935Z,72.46
2022-09-09T04:46:12.359Z,72.40
2022-09-09T04:48:40.262Z,72.66
2022-09-09T04:51:13.440Z,72.31
2022-09-09T04:53:41.440Z,72.57
2022-09-09T04:56:16.837Z,72.18
2022-09-09T04:58:45.292Z,72.27
2022-09-09T05:01:23.142Z,72.38
2022-09-09T05:03:50.769Z,72.39
2022-09-09T05:06:22.785Z,72.86
2022-09-09T05:08:50.608Z,72.19
2022-09-09T05:11:27.958Z,72.74
2022-09-09T05:13:57.119Z,72.17
2022-09-09T05:16:25.165Z,72.83
2022-09-09T05:18:53.731Z,72.75
2022-09-09T05:21:26.060Z,73.42
2022-09-09T05:23:53.659Z,72.26
2022-09-09T05:26:23.775Z,72.81
2022-09-09T05:28:51.192Z,72.44
2022-09-09T05:31:20.262Z,73.28
2022-09-09T05:33:50.465Z,72.48
2022-09-09T05:36:24.145Z,72.80
2022-09-09T05:38:51.976Z,72.81
2022-09-09T05:41:19.545Z,72.86
2022-09-09T05:43:47.967Z,72.84
2022-09-09T05:46:20.639Z,72.90
2022-09-09T05:48:51.925Z,72.97
2022-09-09T05:51:25.209Z,72.12
2022-09-09T05:53:53.378Z,72.26
2022-09-09T05:56:30.512Z,72.41
2022-09-09T05:58:58.289Z,71.77
2022-09-09T06:01:34.613Z,72.70
2022-09-09T06:04:03.039Z,72.25
2022-09-09T06:06:38.030Z,72.96
2022-09-09T06:09:10.852Z,73.73
2022-09-09T06:11:41.812Z,72.90
2022-09-09T06:14:09.728Z,72.75
2022-09-09T06:16:38.820Z,72.80
2022-09-09T06:19:07.529Z,73.19
2022-09-09T06:21:38.294Z,72.56
2022-09-09T06:24:10.162Z,73.78
2022-09-09T06:26:42.645Z,73.15
2022-09-09T06:29:10.852Z,72.75
2022-09-09T06:31:39.280Z,72.99
2022-09-09T06:34:09.855Z,73.59
2022-09-09T06:36:40.493Z,72.41
2022-09-09T06:39:14.126Z,72.63
2022-09-09T06:41:43.567Z,72.25
2022-09-09T06:44:12.860Z,73.19
2022-09-09T06:46:40.710Z,72.34
2022-09-09T06:49:10.207Z,71.89
2022-09-09T06:51:43.755Z,72.41
2022-09-09T06:54:13.285Z,71.96
2022-09-09T06:56:44.041Z,72.68
2022-09-09T06:59:13.131Z,71.66
2022-09-09T07:01:55.640Z,72.92
2022-09-09T07:04:24.233Z,72.32
2022-09-09T07:06:53.454Z,72.82
2022-09-09T07:09:21.554Z,72.19
2022-09-09T07:11:54.892Z,70.93
2022-09-09T07:14:22.953Z,71.20
2022-09-09T07:16:50.295Z,70.40
2022-09-09T07:19:19.277Z,70.75
2022-09-09T07:21:46.695Z,71.13
2022-09-09T07:24:14.054Z,70.38
2022-09-09T07:26:41.680Z,69.31
2022-09-09T07:29:10.028Z,70.08
2022-09-09T07:31:41.030Z,67.12
2022-09-09T07:34:10.088Z,65.44
2022-09-09T07:36:40.989Z,65.52
2022-09-09T07:39:14.148Z,64.21
2022-09-09T07:41:50.188Z,63.56
2022-09-09T07:44:36.272Z,62.34
2022-09-09T07:47:04.930Z,62.76
2022-09-09T07:49:33.391Z,61.89
2022-09-09T07:52:00.798Z,61.84
2022-09-09T07:54:28.680Z,61.47
2022-09-09T07:56:56.059Z,61.18
2022-09-09T07:59:23.410Z,61.25
2022-09-09T08:01:56.229Z,60.15
2022-09-09T08:04:26.431Z,60.11
2022-09-09T08:07:01.221Z,59.77
2022-09-09T08:09:30.005Z,58.67
2022-09-09T08:11:59.268Z,59.86
2022-09-09T08:14:27.185Z,59.80
2022-09-09T08:16:55.498Z,59.18
2022-09-09T08:19:24.470Z,58.38
2022-09-09T08:21:51.817Z,59.10
2022-09-09T08:24:20.635Z,57.90
2022-09-09T08:26:50.284Z,57.99
2022-09-09T08:29:18.925Z,57.96
2022-09-09T08:31:58.252Z,57.48
2022-09-09T08:34:28.116Z,57.73
2022-09-09T08:36:55.695Z,57.24
2022-09-09T08:39:24.051Z,56.03
2022-09-09T08:42:01.637Z,56.14
2022-09-09T08:45:15.281Z,56.28
2022-09-09T08:48:28.422Z,56.31
2022-09-09T08:51:02.807Z,55.69
2022-09-09T08:53:45.609Z,55.53
2022-09-09T08:56:26.857Z,55.90
2022-09-09T08:58:58.244Z,55.30
2022-09-09T09:02:16.883Z,55.06
2022-09-09T09:05:03.526Z,53.00
2022-09-09T09:08:26.091Z,49.43
2022-09-09T09:10:58.329Z,49.07
2022-09-09T09:14:17.418Z,49.45
2022-09-09T09:17:16.107Z,48.64
2022-09-09T09:19:45.164Z,49.05
2022-09-09T09:22:37.548Z,48.41
2022-09-09T09:25:32.471Z,47.51
2022-09-09T09:28:19.237Z,47.44
2022-09-09T09:31:06.810Z,48.06
2022-09-09T09:33:54.096Z,47.46
2022-09-09T09:36:45.579Z,46.70
2022-09-09T09:42:23.924Z,46.28
2022-09-09T09:44:51.790Z,46.22
2022-09-09T09:47:24.444Z,46.29
2022-09-09T09:50:03.182Z,44.89
2022-09-09T09:52:33.205Z,43.93
2022-09-09T09:55:07.463Z,44.05
2022-09-09T09:57:36.772Z,44.19
2022-09-09T10:00:19.192Z,43.45
2022-09-09T10:02:49.669Z,43.69
2022-09-09T10:05:26.534Z,42.91
2022-09-09T10:08:18.414Z,43.58
2022-09-09T10:11:11.628Z,42.67
2022-09-09T10:14:31.169Z,41.87
2022-09-09T10:17:42.269Z,40.94
2022-09-09T10:20:11.277Z,42.10
2022-09-09T10:22:45.083Z,41.75
2022-09-09T10:26:10.098Z,41.71
2022-09-09T10:29:17.438Z,40.21
2022-09-09T10:32:32.415Z,39.77
2022-09-09T10:35:46.766Z,39.97
2022-09-09T10:38:44.385Z,39.51
2022-09-09T10:42:10.327Z,39.02
2022-09-09T10:45:16.538Z,37.55
2022-09-09T10:48:46.647Z,37.76
2022-09-09T10:52:21.544Z,36.98
2022-09-09T10:55:21.359Z,37.75
2022-09-09T10:57:56.823Z,37.94
2022-09-09T11:00:48.317Z,36.78
2022-09-09T11:03:32.744Z,35.50
2022-09-09T11:06:15.723Z,36.24
2022-09-09T11:08:43.911Z,36.94
2022-09-09T11:11:42.520Z,35.66
2022-09-09T11:14:39.274Z,36.13
2022-09-09T11:17:19.255Z,37.69
2022-09-09T11:19:47.275Z,38.37
2022-09-09T11:22:55.637Z,38.69
2022-09-09T11:25:57.925Z,38.24
2022-09-09T11:29:11.772Z,36.97
2022-09-09T11:32:31.364Z,35.93
2022-09-09T11:36:07.941Z,36.56
2022-09-09T11:38:52.384Z,35.63
2022-09-09T11:41:22.241Z,36.59
2022-09-09T11:43:54.241Z,36.59
2022-09-09T11:46:37.414Z,37.50
2022-09-09T11:49:26.184Z,38.98
2022-09-09T11:51:53.529Z,39.10
2022-09-09T11:54:45.607Z,38.45
2022-09-09T11:57:35.730Z,37.56
2022-09-09T12:00:05.577Z,38.04
2022-09-09T12:02:33.168Z,36.59
2022-09-09T12:05:13.466Z,35.70
2022-09-09T12:07:57.934Z,35.30
2022-09-09T12:10:37.045Z,33.89
2022-09-09T12:13:24.245Z,34.37
2022-09-09T12:16:03.525Z,36.30
2022-09-09T12:18:40.504Z,37.15
2022-09-09T12:21:52.644Z,37.22
2022-09-09T12:24:49.813Z,34.50
2022-09-09T12:28:10.749Z,35.32
2022-09-09T12:31:19.123Z,36.95
2022-09-09T12:33:53.788Z,38.13
2022-09-09T12:36:40.323Z,37.90
2022-09-09T12:39:48.204Z,37.54
2022-09-09T12:42:29.003Z,37.21
2022-09-09T12:45:22.469Z,37.48
2022-09-09T12:48:12.867Z,37.36
2022-09-09T12:50:58.145Z,36.88
2022-09-09T12:53:42.702Z,36.95
2022-09-09T12:56:37.174Z,36.58
2022-09-09T12:59:45.412Z,36.88
2022-09-09T13:02:52.905Z,37.26
2022-09-09T13:05:45.346Z,37.37
2022-09-09T13:08:27.763Z,37.83
2022-09-09T13:11:12.109Z,37.98
2022-09-09T13:13:45.209Z,38.14
2022-09-09T13:16:42.591Z,37.98
2022-09-09T13:19:30.290Z,38.14
2022-09-09T13:22:20.599Z,38.49
2022-09-09T13:25:17.842Z,37.06
2022-09-09T13:28:09.367Z,36.61
2022-09-09T13:30:51.920Z,35.58
2022-09-09T13:33:40.628Z,34.60
2022-09-09T13:36:17.838Z,34.60
2022-09-09T13:39:16.425Z,34.66
2022-09-09T13:41:50.106Z,34.89
2022-09-09T13:44:43.292Z,33.54
2022-09-09T13:47:43.630Z,34.09
2022-09-09T13:50:30.845Z,34.34
2022-09-09T13:53:05.648Z,33.48
2022-09-09T13:55:50.361Z,33.32
2022-09-09T13:58:30.702Z,32.91
2022-09-09T14:01:02.639Z,32.67
2022-09-09T14:03:36.139Z,33.73
2022-09-09T14:06:20.304Z,32.91
2022-09-09T14:08:56.844Z,32.31
2022-09-09T14:11:30.892Z,31.73
2022-09-09T14:14:00.184Z,32.38
2022-09-09T14:16:32.396Z,31.87
2022-09-09T14:19:19.482Z,31.63
2022-09-09T14:22:00.068Z,30.59
2022-09-09T14:24:32.862Z,31.08
2022-09-09T14:27:11.462Z,31.74
2022-09-09T14:29:45.527Z,30.62
2022-09-09T14:32:17.616Z,30.25
2022-09-09T14:34:59.079Z,29.94
2022-09-09T14:37:35.344Z,30.14
2022-09-09T14:40:18.098Z,29.91
2022-09-09T14:42:51.615Z,30.38
2022-09-09T14:45:28.641Z,30.71
2022-09-09T14:48:00.912Z,30.17
2022-09-09T14:50:41.579Z,30.74
2022-09-09T14:53:14.321Z,30.59
2022-09-09T14:55:51.240Z,30.13
2022-09-09T14:58:33.515Z,30.29
2022-09-09T15:01:26.758Z,29.98
2022-09-09T15:04:06.831Z,30.68
2022-09-09T15:06:49.791Z,30.06
2022-09-09T15:09:27.793Z,30.18
2022-09-09T15:12:12.184Z,29.88
2022-09-09T15:14:52.065Z,30.25
2022-09-09T15:17:28.941Z,31.18
2022-09-09T15:20:04.414Z,31.41
2022-09-09T15:22:40.576Z,31.90
2022-09-09T15:25:10.875Z,33.07
2022-09-09T15:27:49.632Z,34.02
2022-09-09T15:30:24.225Z,34.70
2022-09-09T15:32:57.746Z,34.92
2022-09-09T15:35:31.741Z,34.90
2022-09-09T15:38:12.277Z,36.68
2022-09-09T15:40:49.799Z,36.19
2022-09-09T15:43:22.014Z,37.95
2022-09-09T15:46:32.615Z,38.24
2022-09-09T15:49:16.690Z,39.04
2022-09-09T15:52:01.368Z,40.50
2022-09-09T15:54:44.078Z,44.45
2022-09-09T15:57:20.037Z,47.57
2022-09-09T16:00:00.393Z,48.99
2022-09-09T16:02:34.853Z,48.82
2022-09-09T16:05:07.976Z,49.29
2022-09-09T16:07:40.890Z,47.92
2022-09-09T16:10:12.766Z,50.02
2022-09-09T16:12:53.112Z,49.68
2022-09-09T16:15:26.932Z,48.64
2022-09-09T16:18:06.289Z,48.02
2022-09-09T16:20:42.838Z,47.89
2022-09-09T16:23:12.534Z,47.73
2022-09-09T16:25:43.899Z,47.72
2022-09-09T16:28:14.734Z,47.47
2022-09-09T16:30:53.244Z,47.31
2022-09-09T16:33:25.935Z,46.72
2022-09-09T16:35:55.117Z,46.33
2022-09-09T16:38:27.530Z,45.48
2022-09-09T16:41:09.795Z,45.42
2022-09-09T16:43:45.586Z,45.27
2022-09-09T16:46:25.792Z,44.53
2022-09-09T16:49:01.681Z,44.03
2022-09-09T16:51:40.199Z,44.19
2022-09-09T16:54:20.946Z,43.67
2022-09-09T16:56:56.113Z,43.78
2022-09-09T16:59:31.875Z,43.35
2022-09-09T17:02:06.557Z,43.20
2022-09-09T17:04:38.238Z,43.00
2022-09-09T17:07:11.442Z,43.33
2022-09-09T17:09:44.092Z,43.11
2022-09-09T17:12:22.028Z,43.15
2022-09-09T17:14:53.131Z,43.42
2022-09-09T17:17:31.598Z,43.53
2022-09-09T17:20:12.154Z,43.80
2022-09-09T17:22:44.080Z,44.01
2022-09-09T17:25:23.666Z,43.83
2022-09-09T17:27:56.199Z,44.44
2022-09-09T17:30:33.283Z,44.42
2022-09-09T17:33:12.868Z,44.74
2022-09-09T17:35:54.497Z,44.67
2022-09-09T17:38:28.827Z,44.60
2022-09-09T17:41:19.491Z,44.96
2022-09-09T17:43:51.930Z,45.09
2022-09-09T17:46:37.610Z,45.24
2022-09-09T17:49:21.952Z,45.19
2022-09-09T17:51:59.533Z,45.12
2022-09-09T17:54:33.861Z,45.20
2022-09-09T17:57:09.510Z,45.35
2022-09-09T17:59:42.863Z,45.51
2022-09-09T18:02:16.814Z,46.03
2022-09-09T18:04:52.935Z,46.01
2022-09-09T18:07:22.586Z,46.47
2022-09-09T18:10:00.244Z,46.33
2022-09-09T18:12:33.130Z,46.28
2022-09-09T18:15:09.228Z,46.53
2022-09-09T18:17:47.234Z,47.01
2022-09-09T18:20:23.989Z,46.98
2022-09-09T18:22:51.236Z,47.18
2022-09-09T18:25:18.595Z,47.07
2022-09-09T18:27:46.577Z,48.29
2022-09-09T18:30:14.521Z,46.79
2022-09-09T18:32:43.459Z,47.58
2022-09-09T18:35:10.962Z,47.19
2022-09-09T18:37:38.988Z,47.05
2022-09-09T18:40:07.055Z,47.43
2022-09-09T18:42:34.905Z,47.63
2022-09-09T18:45:02.172Z,47.67
2022-09-09T18:47:29.424Z,47.10
2022-09-09T18:49:58.410Z,47.42
2022-09-09T18:52:25.697Z,47.08
2022-09-09T18:54:53.731Z,47.26
2022-09-09T18:57:21.044Z,47.42
2022-09-09T18:59:49.174Z,47.16
2022-09-09T19:02:16.441Z,47.46
2022-09-09T19:04:43.753Z,47.98
2022-09-09T19:07:11.461Z,47.59
2022-09-09T19:09:38.949Z,46.96
2022-09-09T19:12:07.343Z,47.38
2022-09-09T19:14:34.608Z,47.40
2022-09-09T19:17:02.276Z,47.61
2022-09-09T19:19:34.148Z,47.99
2022-09-09T19:22:03.355Z,48.62
2022-09-09T19:24:33.725Z,49.29
2022-09-09T19:27:06.896Z,49.46
2022-09-09T19:29:39.501Z,50.07
2022-09-09T19:32:42.708Z,49.74
2022-09-09T19:34:55.249Z,49.53
2022-09-09T19:37:22.578Z,49.99
2022-09-09T19:39:50.768Z,49.95
2022-09-09T19:42:18.638Z,49.92
2022-09-09T19:44:46.567Z,49.94
2022-09-09T19:47:14.949Z,49.92
2022-09-09T19:49:46.789Z,49.71
2022-09-09T19:52:16.164Z,50.46
2022-09-09T19:54:45.387Z,50.40
2022-09-09T19:57:12.776Z,50.16
2022-09-09T19:59:40.044Z,49.92
2022-09-09T20:02:08.144Z,49.08
2022-09-09T20:04:35.520Z,48.89
2022-09-09T20:07:02.783Z,48.48
2022-09-09T20:09:30.476Z,48.39
2022-09-09T20:11:57.856Z,48.40
2022-09-09T20:14:25.306Z,48.82
2022-09-09T20:16:53.441Z,49.10
2022-09-09T20:19:20.753Z,48.70
2022-09-09T20:21:49.558Z,48.76
2022-09-09T20:24:23.911Z,49.60
2022-09-09T20:26:51.752Z,49.76
2022-09-09T20:29:20.755Z,50.40
2022-09-09T20:31:50.138Z,49.71
2022-09-09T20:34:22.319Z,49.02
2022-09-09T20:36:50.962Z,49.59
2022-09-09T20:39:20.842Z,49.32
2022-09-09T20:41:49.838Z,48.63
2022-09-09T20:44:26.865Z,48.34
2022-09-09T20:47:00.389Z,47.99
2022-09-09T20:49:27.904Z,49.35
2022-09-09T20:51:55.276Z,48.20
2022-09-09T20:54:30.600Z,49.82
2022-09-09T20:57:00.352Z,49.00
2022-09-09T20:59:31.217Z,48.76
2022-09-09T21:01:59.420Z,48.82
2022-09-09T21:04:27.801Z,48.92
2022-09-09T21:06:55.134Z,48.87
2022-09-09T21:09:25.214Z,49.27
2022-09-09T21:11:53.783Z,48.71
2022-09-09T21:14:21.953Z,48.86
2022-09-09T21:16:49.386Z,48.23
2022-09-09T21:19:16.688Z,48.83
2022-09-09T21:21:46.652Z,48.34
2022-09-09T21:24:14.222Z,48.40
2022-09-09T21:26:41.482Z,48.00
2022-09-09T21:29:08.849Z,48.45
2022-09-09T21:31:37.345Z,47.63
2022-09-09T21:34:05.204Z,47.70
2022-09-09T21:36:33.767Z,48.06
2022-09-09T21:39:01.144Z,49.27
2022-09-09T21:41:28.493Z,48.08
2022-09-09T21:43:56.445Z,48.66
2022-09-09T21:46:26.423Z,47.12
2022-09-09T21:48:56.392Z,47.58
2022-09-09T21:51:24.233Z,46.78
2022-09-09T21:53:56.076Z,46.73
2022-09-09T21:56:23.656Z,46.88
2022-09-09T21:59:04.645Z,46.97
2022-09-09T22:01:33.562Z,47.13
2022-09-09T22:04:01.859Z,47.23
2022-09-09T22:06:29.169Z,47.61
2022-09-09T22:08:58.884Z,46.83
2022-09-09T22:11:26.353Z,46.94
2022-09-09T22:13:53.625Z,48.52
2022-09-09T22:16:22.596Z,47.55
2022-09-09T22:19:00.471Z,48.43
2022-09-09T22:21:32.990Z,47.12
2022-09-09T22:24:05.989Z,47.04
2022-09-09T22:26:37.908Z,47.57
2022-09-09T22:29:06.884Z,47.56
2022-09-09T22:31:36.584Z,47.63
2022-09-09T22:34:05.076Z,47.61
2022-09-09T22:36:34.128Z,47.23
2022-09-09T22:39:04.748Z,47.19
2022-09-09T22:41:32.239Z,47.57
2022-09-09T22:43:59.587Z,48.02
2022-09-09T22:46:26.956Z,47.54
2022-09-09T22:48:54.471Z,47.89
2022-09-09T22:51:21.763Z,47.85
2022-09-09T22:53:49.094Z,48.05
2022-09-09T22:56:20.249Z,48.21
2022-09-09T22:58:52.929Z,48.40
2022-09-09T23:01:21.001Z,48.67
2022-09-09T23:03:50.985Z,48.82
2022-09-09T23:06:25.161Z,49.01
2022-09-09T23:08:59.665Z,49.32
2022-09-09T23:11:38.300Z,49.62
2022-09-09T23:14:11.349Z,49.68
2022-09-09T23:16:45.476Z,49.81
2022-09-09T23:19:17.113Z,50.10
2022-09-09T23:21:47.798Z,50.55
2022-09-09T23:24:18.990Z,50.56
2022-09-09T23:26:47.414Z,50.78
2022-09-09T23:29:15.531Z,51.31
2022-09-09T23:31:46.425Z,51.53
2022-09-09T23:34:14.718Z,51.72
2022-09-09T23:36:42.243Z,51.60
2022-09-09T23:39:13.277Z,51.98
2022-09-09T23:41:41.013Z,51.86
2022-09-09T23:44:08.982Z,52.56
2022-09-09T23:46:36.546Z,52.50
2022-09-09T23:49:04.577Z,52.23
2022-09-09T23:51:33.705Z,52.35
2022-09-09T23:54:04.748Z,52.43
2022-09-09T23:56:41.350Z,52.87
2022-09-09T23:59:09.453Z,52.84
